sensor_id;sensor_type;location;lat;lon;timestamp;P1;durP1;ratioP1;P2;durP2;ratioP2
9264;SDS011;4669;49.594;10.958;2022-11-27T05:28:23;9.57;;;8.70;;
9264;SDS011;4669;49.594;10.958;2022-11-27T05:33:25;9.60;;;8.63;;
9264;SDS011;4669;49.594;10.958;2022-11-27T05:38:27;10.40;;;9.50;;
9264;SDS011;4669;49.594;10.958;2022-11-27T05:43:31;11.30;;;10.07;;
9264;SDS011;4669;49.594;10.958;2022-11-27T05:48:33;10.40;;;9.45;;
9264;SDS011;4669;49.594;10.958;2022-11-27T05:53:36;9.90;;;8.90;;
9264;SDS011;4669;49.594;10.958;2022-11-27T05:58:39;9.02;;;8.20;;
9264;SDS011;4669;49.594;10.958;2022-11-27T06:03:43;9.10;;;8.30;;
9264;SDS011;4669;49.594;10.958;2022-11-27T06:08:46;9.60;;;8.77;;
9264;SDS011;4669;49.594;10.958;2022-11-27T06:13:50;9.07;;;8.23;;
9264;SDS011;4669;49.594;10.958;2022-11-27T06:18:52;10.40;;;9.43;;
9264;SDS011;4669;49.594;10.958;2022-11-27T06:23:55;10.32;;;9.35;;
9264;SDS011;4669;49.594;10.958;2022-11-27T06:28:59;10.32;;;9.23;;
9264;SDS011;4669;49.594;10.958;2022-11-27T06:34:02;10.13;;;9.18;;
9264;SDS011;4669;49.594;10.958;2022-11-27T06:39:05;12.90;;;10.77;;
9264;SDS011;4669;49.594;10.958;2022-11-27T06:44:10;9.90;;;8.88;;
9264;SDS011;4669;49.594;10.958;2022-11-27T06:49:12;16.27;;;9.13;;
9264;SDS011;4669;49.594;10.958;2022-11-27T06:54:14;9.90;;;9.00;;
9264;SDS011;4669;49.594;10.958;2022-11-27T06:59:17;10.88;;;9.88;;
9264;SDS011;4669;49.594;10.958;2022-11-27T07:04:19;11.45;;;10.45;;
9264;SDS011;4669;49.594;10.958;2022-11-27T07:09:21;13.13;;;11.20;;
9264;SDS011;4669;49.594;10.958;2022-11-27T07:14:24;11.18;;;10.18;;
9264;SDS011;4669;49.594;10.958;2022-11-27T07:19:26;13.10;;;11.80;;
9264;SDS011;4669;49.594;10.958;2022-11-27T07:24:28;12.48;;;11.05;;
9264;SDS011;4669;49.594;10.958;2022-11-27T07:29:32;13.95;;;11.30;;
9264;SDS011;4669;49.594;10.958;2022-11-27T07:34:33;14.90;;;12.40;;
9264;SDS011;4669;49.594;10.958;2022-11-27T07:39:35;14.35;;;12.68;;
9264;SDS011;4669;49.594;10.958;2022-11-27T07:44:39;18.17;;;16.27;;
9264;SDS011;4669;49.594;10.958;2022-11-27T07:49:41;15.90;;;13.50;;
9264;SDS011;4669;49.594;10.958;2022-11-27T07:54:43;14.57;;;11.75;;
9264;SDS011;4669;49.594;10.958;2022-11-27T07:59:47;23.40;;;13.65;;
9264;SDS011;4669;49.594;10.958;2022-11-27T08:04:49;19.33;;;14.27;;
9264;SDS011;4669;49.594;10.958;2022-11-27T08:09:51;23.58;;;17.00;;
9264;SDS011;4669;49.594;10.958;2022-11-27T08:14:54;20.40;;;15.02;;
9264;SDS011;4669;49.594;10.958;2022-11-27T08:19:56;22.65;;;17.63;;
9264;SDS011;4669;49.594;10.958;2022-11-27T08:24:58;23.15;;;16.42;;
9264;SDS011;4669;49.594;10.958;2022-11-27T08:30:01;26.83;;;16.27;;
9264;SDS011;4669;49.594;10.958;2022-11-27T08:35:04;23.02;;;16.42;;
9264;SDS011;4669;49.594;10.958;2022-11-27T08:40:07;23.48;;;15.32;;
9264;SDS011;4669;49.594;10.958;2022-11-27T08:45:11;21.85;;;16.20;;
9264;SDS011;4669;49.594;10.958;2022-11-27T08:50:13;24.77;;;16.25;;
9264;SDS011;4669;49.594;10.958;2022-11-27T08:55:15;23.88;;;16.60;;
9264;SDS011;4669;49.594;10.958;2022-11-27T09:00:19;24.45;;;16.15;;
9264;SDS011;4669;49.594;10.958;2022-11-27T09:05:21;17.40;;;13.93;;
9264;SDS011;4669;49.594;10.958;2022-11-27T09:10:24;19.92;;;15.02;;
9264;SDS011;4669;49.594;10.958;2022-11-27T09:15:27;21.90;;;16.08;;
9264;SDS011;4669;49.594;10.958;2022-11-27T09:20:29;23.67;;;15.43;;
9264;SDS011;4669;49.594;10.958;2022-11-27T09:25:31;22.27;;;15.15;;
9264;SDS011;4669;49.594;10.958;2022-11-27T09:30:34;21.40;;;15.15;;
9264;SDS011;4669;49.594;10.958;2022-11-27T09:35:39;20.58;;;15.45;;
9264;SDS011;4669;49.594;10.958;2022-11-27T09:40:42;22.58;;;15.60;;
9264;SDS011;4669;49.594;10.958;2022-11-27T09:45:47;21.08;;;15.80;;
9264;SDS011;4669;49.594;10.958;2022-11-27T09:50:54;22.70;;;15.95;;
9264;SDS011;4669;49.594;10.958;2022-11-27T09:55:57;21.83;;;16.60;;
9264;SDS011;4669;49.594;10.958;2022-11-27T10:01:09;25.20;;;16.92;;
9264;SDS011;4669;49.594;10.958;2022-11-27T10:06:17;20.52;;;15.55;;
9264;SDS011;4669;49.594;10.958;2022-11-27T10:11:28;22.83;;;16.73;;
9264;SDS011;4669;49.594;10.958;2022-11-27T10:16:37;22.25;;;16.75;;
9264;SDS011;4669;49.594;10.958;2022-11-27T10:21:45;26.95;;;19.30;;
9264;SDS011;4669;49.594;10.958;2022-11-27T10:26:53;24.90;;;17.77;;
9264;SDS011;4669;49.594;10.958;2022-11-27T10:32:00;21.95;;;17.65;;
9264;SDS011;4669;49.594;10.958;2022-11-27T10:37:10;18.35;;;14.90;;
9264;SDS011;4669;49.594;10.958;2022-11-27T10:42:17;13.32;;;11.90;;
9264;SDS011;4669;49.594;10.958;2022-11-27T10:47:26;15.40;;;12.40;;
9264;SDS011;4669;49.594;10.958;2022-11-27T10:52:29;15.25;;;11.45;;
9264;SDS011;4669;49.594;10.958;2022-11-27T10:57:37;15.02;;;11.93;;
9264;SDS011;4669;49.594;10.958;2022-11-27T11:02:57;11.65;;;10.43;;
9264;SDS011;4669;49.594;10.958;2022-11-27T11:08:00;12.50;;;11.13;;
9264;SDS011;4669;49.594;10.958;2022-11-27T11:13:12;13.27;;;10.77;;
9264;SDS011;4669;49.594;10.958;2022-11-27T11:18:18;14.02;;;11.73;;
9264;SDS011;4669;49.594;10.958;2022-11-27T11:23:23;14.93;;;12.45;;
9264;SDS011;4669;49.594;10.958;2022-11-27T11:28:31;11.90;;;10.65;;
9264;SDS011;4669;49.594;10.958;2022-11-27T11:33:38;12.45;;;10.18;;
9264;SDS011;4669;49.594;10.958;2022-11-27T11:38:47;12.18;;;10.50;;
9264;SDS011;4669;49.594;10.958;2022-11-27T11:43:57;11.13;;;9.90;;
9264;SDS011;4669;49.594;10.958;2022-11-27T11:49:04;16.08;;;11.52;;
9264;SDS011;4669;49.594;10.958;2022-11-27T11:54:12;12.73;;;10.35;;
9264;SDS011;4669;49.594;10.958;2022-11-27T11:59:28;10.82;;;9.73;;
9264;SDS011;4669;49.594;10.958;2022-11-27T12:04:49;9.93;;;8.93;;
9264;SDS011;4669;49.594;10.958;2022-11-27T12:10:10;10.93;;;9.25;;
9264;SDS011;4669;49.594;10.958;2022-11-27T12:15:18;10.27;;;9.27;;
9264;SDS011;4669;49.594;10.958;2022-11-27T12:20:35;10.50;;;9.32;;
9264;SDS011;4669;49.594;10.958;2022-11-27T12:25:46;10.05;;;9.05;;
9264;SDS011;4669;49.594;10.958;2022-11-27T12:30:56;11.23;;;9.93;;
9264;SDS011;4669;49.594;10.958;2022-11-27T12:36:06;11.05;;;9.60;;
9264;SDS011;4669;49.594;10.958;2022-11-27T12:41:32;10.10;;;8.90;;
9264;SDS011;4669;49.594;10.958;2022-11-27T12:46:51;8.82;;;7.93;;
9264;SDS011;4669;49.594;10.958;2022-11-27T12:52:02;9.77;;;8.02;;
9264;SDS011;4669;49.594;10.958;2022-11-27T12:57:12;14.52;;;11.73;;
9264;SDS011;4669;49.594;10.958;2022-11-27T13:02:20;12.00;;;9.60;;
9264;SDS011;4669;49.594;10.958;2022-11-27T13:07:32;9.55;;;8.55;;
9264;SDS011;4669;49.594;10.958;2022-11-27T13:12:41;10.55;;;8.80;;
9264;SDS011;4669;49.594;10.958;2022-11-27T13:17:50;11.25;;;8.65;;
9264;SDS011;4669;49.594;10.958;2022-11-27T13:22:59;9.38;;;8.10;;
9264;SDS011;4669;49.594;10.958;2022-11-27T13:28:01;9.75;;;8.25;;
9264;SDS011;4669;49.594;10.958;2022-11-27T13:33:05;9.35;;;8.45;;
9264;SDS011;4669;49.594;10.958;2022-11-27T13:38:10;10.13;;;8.98;;
9264;SDS011;4669;49.594;10.958;2022-11-27T13:43:18;10.48;;;9.38;;
9264;SDS011;4669;49.594;10.958;2022-11-27T13:48:25;11.23;;;9.35;;
9264;SDS011;4669;49.594;10.958;2022-11-27T13:53:34;12.30;;;9.02;;
9264;SDS011;4669;49.594;10.958;2022-11-27T13:58:38;10.27;;;9.18;;
9264;SDS011;4669;49.594;10.958;2022-11-27T14:03:41;10.77;;;9.15;;
9264;SDS011;4669;49.594;10.958;2022-11-27T14:08:49;9.50;;;8.52;;
9264;SDS011;4669;49.594;10.958;2022-11-27T14:13:57;9.90;;;8.45;;
9264;SDS011;4669;49.594;10.958;2022-11-27T14:19:02;15.52;;;12.55;;
9264;SDS011;4669;49.594;10.958;2022-11-27T14:24:25;10.38;;;9.20;;
9264;SDS011;4669;49.594;10.958;2022-11-27T14:29:34;12.45;;;10.02;;
9264;SDS011;4669;49.594;10.958;2022-11-27T14:34:36;15.68;;;11.48;;
9264;SDS011;4669;49.594;10.958;2022-11-27T14:39:40;12.85;;;10.88;;
9264;SDS011;4669;49.594;10.958;2022-11-27T14:44:42;11.43;;;9.90;;
9264;SDS011;4669;49.594;10.958;2022-11-27T14:49:44;18.45;;;13.45;;
9264;SDS011;4669;49.594;10.958;2022-11-27T14:54:48;16.60;;;11.82;;
9264;SDS011;4669;49.594;10.958;2022-11-27T15:00:01;12.07;;;10.52;;
9264;SDS011;4669;49.594;10.958;2022-11-27T15:05:05;17.60;;;13.15;;
9264;SDS011;4669;49.594;10.958;2022-11-27T15:10:16;14.35;;;11.30;;
9264;SDS011;4669;49.594;10.958;2022-11-27T15:15:23;13.07;;;11.32;;
9264;SDS011;4669;49.594;10.958;2022-11-27T15:20:31;13.85;;;11.70;;
9264;SDS011;4669;49.594;10.958;2022-11-27T15:25:37;13.57;;;11.43;;
9264;SDS011;4669;49.594;10.958;2022-11-27T15:30:42;11.02;;;9.85;;
9264;SDS011;4669;49.594;10.958;2022-11-27T15:35:44;11.52;;;10.43;;
9264;SDS011;4669;49.594;10.958;2022-11-27T15:40:56;11.20;;;9.65;;
9264;SDS011;4669;49.594;10.958;2022-11-27T15:46:03;11.70;;;10.25;;
9264;SDS011;4669;49.594;10.958;2022-11-27T15:51:07;12.48;;;11.18;;
9264;SDS011;4669;49.594;10.958;2022-11-27T15:56:10;10.85;;;9.75;;
9264;SDS011;4669;49.594;10.958;2022-11-27T16:01:12;10.50;;;9.40;;
9264;SDS011;4669;49.594;10.958;2022-11-27T16:06:14;11.25;;;10.00;;
9264;SDS011;4669;49.594;10.958;2022-11-27T16:11:18;10.32;;;9.15;;
9264;SDS011;4669;49.594;10.958;2022-11-27T16:16:20;12.45;;;9.75;;
9264;SDS011;4669;49.594;10.958;2022-11-27T16:21:23;10.80;;;9.63;;
9264;SDS011;4669;49.594;10.958;2022-11-27T16:26:27;11.05;;;9.65;;
9264;SDS011;4669;49.594;10.958;2022-11-27T16:31:29;10.32;;;9.35;;
9264;SDS011;4669;49.594;10.958;2022-11-27T16:36:31;10.85;;;9.85;;
9264;SDS011;4669;49.594;10.958;2022-11-27T16:41:35;11.57;;;10.43;;
9264;SDS011;4669;49.594;10.958;2022-11-27T16:46:37;12.00;;;10.23;;
9264;SDS011;4669;49.594;10.958;2022-11-27T16:51:40;11.27;;;10.18;;
9264;SDS011;4669;49.594;10.958;2022-11-27T16:56:45;12.30;;;10.25;;
9264;SDS011;4669;49.594;10.958;2022-11-27T17:01:48;11.55;;;9.75;;
9264;SDS011;4669;49.594;10.958;2022-11-27T17:06:50;14.25;;;10.57;;
9264;SDS011;4669;49.594;10.958;2022-11-27T17:11:54;11.55;;;10.38;;
9264;SDS011;4669;49.594;10.958;2022-11-27T17:16:59;11.55;;;10.35;;
9264;SDS011;4669;49.594;10.958;2022-11-27T17:22:03;10.75;;;9.65;;
9264;SDS011;4669;49.594;10.958;2022-11-27T17:27:09;11.88;;;10.68;;
9264;SDS011;4669;49.594;10.958;2022-11-27T17:32:13;14.23;;;12.65;;
9264;SDS011;4669;49.594;10.958;2022-11-27T17:37:17;12.35;;;11.18;;
9264;SDS011;4669;49.594;10.958;2022-11-27T17:42:20;12.98;;;11.68;;
9264;SDS011;4669;49.594;10.958;2022-11-27T17:47:22;17.33;;;13.50;;
9264;SDS011;4669;49.594;10.958;2022-11-27T17:52:24;13.68;;;11.95;;
9264;SDS011;4669;49.594;10.958;2022-11-27T17:57:28;16.60;;;13.38;;
9264;SDS011;4669;49.594;10.958;2022-11-27T18:02:30;13.10;;;11.82;;
9264;SDS011;4669;49.594;10.958;2022-11-27T18:07:32;12.40;;;11.10;;
9264;SDS011;4669;49.594;10.958;2022-11-27T18:12:35;12.75;;;10.68;;
9264;SDS011;4669;49.594;10.958;2022-11-27T18:17:37;15.23;;;12.35;;
9264;SDS011;4669;49.594;10.958;2022-11-27T18:22:39;18.05;;;13.98;;
9264;SDS011;4669;49.594;10.958;2022-11-27T18:27:43;32.72;;;19.95;;
9264;SDS011;4669;49.594;10.958;2022-11-27T18:32:45;19.17;;;14.38;;
9264;SDS011;4669;49.594;10.958;2022-11-27T18:37:47;30.17;;;18.42;;
9264;SDS011;4669;49.594;10.958;2022-11-27T18:42:50;33.50;;;21.45;;
9264;SDS011;4669;49.594;10.958;2022-11-27T18:47:52;17.30;;;14.52;;
9264;SDS011;4669;49.594;10.958;2022-11-27T18:52:54;18.45;;;14.75;;
9264;SDS011;4669;49.594;10.958;2022-11-27T18:57:58;16.70;;;14.35;;
9264;SDS011;4669;49.594;10.958;2022-11-27T19:03:00;18.63;;;15.60;;
9264;SDS011;4669;49.594;10.958;2022-11-27T19:08:02;18.13;;;14.20;;
9264;SDS011;4669;49.594;10.958;2022-11-27T19:13:08;16.33;;;14.63;;
9264;SDS011;4669;49.594;10.958;2022-11-27T19:18:10;17.88;;;14.38;;
9264;SDS011;4669;49.594;10.958;2022-11-27T19:23:12;18.08;;;14.57;;
9264;SDS011;4669;49.594;10.958;2022-11-27T19:28:16;17.77;;;14.23;;
9264;SDS011;4669;49.594;10.958;2022-11-27T19:33:18;18.33;;;14.23;;
9264;SDS011;4669;49.594;10.958;2022-11-27T19:38:21;18.60;;;15.20;;
9264;SDS011;4669;49.594;10.958;2022-11-27T19:43:24;16.40;;;14.55;;
9264;SDS011;4669;49.594;10.958;2022-11-27T19:48:26;18.75;;;15.27;;
9264;SDS011;4669;49.594;10.958;2022-11-27T19:53:28;17.38;;;15.45;;
9264;SDS011;4669;49.594;10.958;2022-11-27T19:58:32;17.48;;;15.48;;
9264;SDS011;4669;49.594;10.958;2022-11-27T20:03:35;25.13;;;19.05;;
9264;SDS011;4669;49.594;10.958;2022-11-27T20:08:37;19.25;;;16.02;;
9264;SDS011;4669;49.594;10.958;2022-11-27T20:13:42;37.58;;;22.33;;
9264;SDS011;4669;49.594;10.958;2022-11-27T20:18:45;18.25;;;15.18;;
9264;SDS011;4669;49.594;10.958;2022-11-27T20:23:48;18.23;;;14.98;;
9264;SDS011;4669;49.594;10.958;2022-11-27T20:28:53;15.82;;;13.70;;
9264;SDS011;4669;49.594;10.958;2022-11-27T20:33:55;16.20;;;14.48;;
9264;SDS011;4669;49.594;10.958;2022-11-27T20:39:00;15.93;;;13.40;;
9264;SDS011;4669;49.594;10.958;2022-11-27T20:44:03;15.75;;;14.02;;
9264;SDS011;4669;49.594;10.958;2022-11-27T20:49:06;16.52;;;13.15;;
9264;SDS011;4669;49.594;10.958;2022-11-27T20:54:09;15.90;;;13.98;;
9264;SDS011;4669;49.594;10.958;2022-11-27T20:59:13;16.15;;;14.43;;
9264;SDS011;4669;49.594;10.958;2022-11-27T21:04:17;19.25;;;15.20;;
9264;SDS011;4669;49.594;10.958;2022-11-27T21:09:21;18.13;;;14.30;;
9264;SDS011;4669;49.594;10.958;2022-11-27T21:14:25;19.63;;;15.02;;
9264;SDS011;4669;49.594;10.958;2022-11-27T21:19:27;17.70;;;14.10;;
9264;SDS011;4669;49.594;10.958;2022-11-27T21:24:29;16.70;;;14.00;;
9264;SDS011;4669;49.594;10.958;2022-11-27T21:29:33;17.83;;;14.25;;
9264;SDS011;4669;49.594;10.958;2022-11-27T21:34:37;17.42;;;14.07;;
9264;SDS011;4669;49.594;10.958;2022-11-27T21:39:39;18.60;;;14.77;;
9264;SDS011;4669;49.594;10.958;2022-11-27T21:44:45;16.65;;;14.05;;
9264;SDS011;4669;49.594;10.958;2022-11-27T21:49:48;19.27;;;14.88;;
9264;SDS011;4669;49.594;10.958;2022-11-27T21:54:51;18.13;;;14.15;;
9264;SDS011;4669;49.594;10.958;2022-11-27T21:59:55;17.95;;;14.70;;
9264;SDS011;4669;49.594;10.958;2022-11-27T22:04:57;18.77;;;15.57;;
9264;SDS011;4669;49.594;10.958;2022-11-27T22:09:59;17.98;;;15.15;;
9264;SDS011;4669;49.594;10.958;2022-11-27T22:15:03;19.55;;;15.52;;
9264;SDS011;4669;49.594;10.958;2022-11-27T22:20:06;22.52;;;16.25;;
9264;SDS011;4669;49.594;10.958;2022-11-27T22:25:08;19.67;;;16.27;;
9264;SDS011;4669;49.594;10.958;2022-11-27T22:30:12;19.88;;;15.82;;
9264;SDS011;4669;49.594;10.958;2022-11-27T22:35:14;21.27;;;17.48;;
9264;SDS011;4669;49.594;10.958;2022-11-27T22:40:17;21.00;;;16.73;;
9264;SDS011;4669;49.594;10.958;2022-11-27T22:45:20;23.45;;;16.55;;
9264;SDS011;4669;49.594;10.958;2022-11-27T22:50:22;21.30;;;16.73;;
9264;SDS011;4669;49.594;10.958;2022-11-27T22:55:24;22.73;;;17.33;;
